Time;durP1;ratioP1;P1;durP2;ratioP2;P2;SDS_P1;SDS_P2;PMS_P1;PMS_P2;Temp;Humidity;BMP_temperature;BMP_pressure;BME280_temperature;BME280_humidity;BME280_pressure;Samples;Min_cycle;Max_cycle;Signal;HPM_P1;HPM_P2
2022/05/10 00:00:13;;;;;;;3.70;3.00;;;;;;;14.44;59.66;101953.31;5072162;28;20063;-79
2022/05/10 00:02:38;;;;;;;3.53;3.00;;;;;;;14.41;60.10;101950.75;5071295;28;20443;-79
2022/05/10 00:05:04;;;;;;;3.97;3.10;;;;;;;14.37;59.32;101952.50;5071393;28;20060;-79
2022/05/10 00:07:33;;;;;;;4.72;3.13;;;;;;;14.34;60.63;101952.59;5072071;28;20035;-79
2022/05/10 00:09:59;;;;;;;4.43;2.97;;;;;;;14.29;59.43;101951.75;5071806;28;20488;-79
2022/05/10 00:12:25;;;;;;;4.82;3.53;;;;;;;14.24;59.72;101949.22;5071150;28;20366;-79
2022/05/10 00:14:51;;;;;;;5.10;3.40;;;;;;;14.20;59.50;101944.91;5072076;28;20099;-79
2022/05/10 00:17:28;;;;;;;4.00;3.10;;;;;;;14.17;59.76;101947.56;5075435;28;20500;-79
2022/05/10 00:19:54;;;;;;;5.30;3.67;;;;;;;14.14;60.07;101945.00;5074836;28;20028;-79
2022/05/10 00:22:25;;;;;;;4.03;3.15;;;;;;;14.10;59.98;101944.19;5075835;28;20020;-79
2022/05/10 00:24:50;;;;;;;3.92;3.30;;;;;;;14.02;60.41;101933.81;5074704;28;20028;-79
2022/05/10 00:27:17;;;;;;;4.47;3.40;;;;;;;14.01;60.22;101933.84;5075721;28;20102;-79
2022/05/10 00:29:45;;;;;;;4.70;3.50;;;;;;;13.96;60.29;101923.44;5075465;28;20028;-79
2022/05/10 00:32:10;;;;;;;6.03;4.13;;;;;;;13.93;59.96;101931.34;5074743;28;20020;-79
2022/05/10 00:34:39;;;;;;;6.90;4.00;;;;;;;13.92;60.35;101929.59;5075530;28;20020;-80
2022/05/10 00:37:08;;;;;;;5.93;4.00;;;;;;;13.87;60.50;101924.44;5075519;28;20024;-79
2022/05/10 00:39:33;;;;;;;4.93;3.85;;;;;;;13.85;60.46;101926.19;5074631;28;20119;-79
2022/05/10 00:42:05;;;;;;;6.70;4.30;;;;;;;13.81;60.39;101923.66;5074852;28;20119;-79
2022/05/10 00:44:34;;;;;;;6.55;4.20;;;;;;;13.77;60.67;101919.34;5075034;28;20016;-79
2022/05/10 00:47:17;;;;;;;7.15;4.20;;;;;;;13.73;60.91;101921.13;5074342;28;20029;-79
2022/05/10 00:50:04;;;;;;;6.82;4.13;;;;;;;13.69;60.96;101917.69;5074903;28;20052;-79
2022/05/10 00:52:50;;;;;;;6.65;4.35;;;;;;;13.65;61.08;101918.59;5075025;28;20074;-79
2022/05/10 00:55:25;;;;;;;7.35;4.72;;;;;;;13.62;61.20;101920.38;5075298;28;20032;-79
2022/05/10 00:57:59;;;;;;;7.65;4.70;;;;;;;13.57;61.32;101908.22;5074930;28;20437;-79
2022/05/10 01:00:27;;;;;;;7.95;4.82;;;;;;;13.53;61.41;101903.06;5073887;28;20035;-79
2022/05/10 01:03:05;;;;;;;7.47;4.50;;;;;;;13.53;61.38;101911.78;5074857;28;20035;-79
2022/05/10 01:05:52;;;;;;;7.60;4.63;;;;;;;13.50;61.72;101910.94;5074873;28;20049;-79
2022/05/10 01:08:24;;;;;;;7.03;4.85;;;;;;;13.46;61.92;101907.47;5074317;28;20036;-79
2022/05/10 01:11:05;;;;;;;7.80;4.60;;;;;;;13.41;61.87;101897.09;5074674;28;20053;-79
2022/05/10 01:14:00;;;;;;;7.65;4.88;;;;;;;13.38;61.87;101897.13;5074468;28;20362;-79
2022/05/10 01:16:25;;;;;;;8.00;4.90;;;;;;;13.32;62.08;101899.78;5074656;28;20052;-79
2022/05/10 01:18:52;;;;;;;7.57;5.17;;;;;;;13.29;62.03;101889.38;5074375;28;20028;-79
2022/05/10 01:21:31;;;;;;;6.50;4.65;;;;;;;13.25;62.57;101888.53;5073360;28;20489;-79
2022/05/10 01:24:18;;;;;;;7.00;4.90;;;;;;;13.21;62.37;101889.47;5074143;28;20079;-79
2022/05/10 01:27:00;;;;;;;8.93;4.97;;;;;;;13.18;62.44;101883.38;5072775;28;20575;-78
2022/05/10 01:29:50;;;;;;;7.30;4.75;;;;;;;13.15;62.69;101886.91;5073492;28;20094;-79
2022/05/10 01:35:19;;;;;;;7.53;5.00;;;;;;;13.08;62.90;101880.88;5074043;28;20043;-79
2022/05/10 01:37:51;;;;;;;7.05;4.65;;;;;;;13.02;62.97;101869.63;5073999;28;20029;-79
2022/05/10 01:40:23;;;;;;;7.88;5.07;;;;;;;12.97;62.85;101875.78;5073999;28;20029;-79
2022/05/10 01:42:58;;;;;;;6.78;4.65;;;;;;;12.95;63.19;101872.31;5072988;28;20032;-79
2022/05/10 01:45:34;;;;;;;7.50;4.97;;;;;;;12.93;63.31;101865.41;5074237;28;20056;-79
2022/05/10 01:48:01;;;;;;;9.00;5.10;;;;;;;12.91;63.30;101867.16;5073843;28;20036;-79
2022/05/10 01:50:42;;;;;;;9.55;5.00;;;;;;;12.89;63.56;101861.94;5073123;28;20035;-79
2022/05/10 01:53:18;;;;;;;8.77;5.10;;;;;;;12.87;63.40;101857.63;5073568;28;20040;-79
2022/05/10 01:55:58;;;;;;;6.57;4.70;;;;;;;12.83;63.87;101852.44;5073301;28;20033;-79
2022/05/10 01:58:27;;;;;;;7.20;5.05;;;;;;;12.82;63.96;101852.44;5073202;28;20109;-79
2022/05/10 02:01:04;;;;;;;7.88;5.03;;;;;;;12.82;63.94;101852.44;5073325;28;20039;-79
2022/05/10 02:03:46;;;;;;;8.27;5.15;;;;;;;12.81;64.26;101858.53;5072850;28;20031;-79
2022/05/10 02:06:26;;;;;;;8.65;4.90;;;;;;;12.78;64.02;101850.72;5073652;28;20547;-79
2022/05/10 02:09:14;;;;;;;6.93;4.90;;;;;;;12.74;64.19;101842.09;5073298;28;20025;-79
2022/05/10 02:11:44;;;;;;;8.52;5.28;;;;;;;12.76;64.46;101845.56;5059597;28;20052;-79
2022/05/10 02:14:28;;;;;;;8.10;4.72;;;;;;;12.75;64.34;101850.78;5073705;28;20111;-79
2022/05/10 02:17:19;;;;;;;8.88;5.15;;;;;;;12.74;64.19;101843.84;5072896;28;20542;-79
2022/05/10 02:19:57;;;;;;;7.72;4.82;;;;;;;12.73;64.70;101840.34;5073180;28;20097;-79
2022/05/10 02:22:34;;;;;;;8.77;5.05;;;;;;;12.71;64.64;101828.22;5073173;28;20405;-79
2022/05/10 02:25:08;;;;;;;7.82;4.80;;;;;;;12.70;64.67;101830.00;5072248;28;20477;-79
2022/05/10 02:27:56;;;;;;;8.98;4.80;;;;;;;12.69;64.86;101828.25;5073370;28;20124;-79
2022/05/10 02:30:26;;;;;;;10.07;5.13;;;;;;;12.69;65.01;101823.03;5073117;28;20436;-79
2022/05/10 02:33:09;;;;;;;9.30;5.15;;;;;;;12.72;64.90;101823.00;5072005;28;20028;-79
2022/05/10 02:35:54;;;;;;;8.00;5.10;;;;;;;12.71;64.75;101818.69;5073272;28;20036;-79
2022/05/10 02:38:25;;;;;;;7.95;5.05;;;;;;;12.71;64.87;101818.69;5071921;28;20469;-79
2022/05/10 02:40:55;;;;;;;8.07;4.97;;;;;;;12.70;65.16;101814.34;5072577;28;20077;-79
2022/05/10 02:43:25;;;;;;;7.85;4.90;;;;;;;12.69;65.22;101812.63;5073027;28;20465;-79
2022/05/10 02:45:54;;;;;;;6.65;4.45;;;;;;;12.69;65.59;101812.63;5072090;28;20036;-79
2022/05/10 02:48:33;;;;;;;7.97;4.80;;;;;;;12.67;65.80;101809.16;5072800;28;20032;-79
2022/05/10 02:51:02;;;;;;;6.85;4.45;;;;;;;12.65;65.69;101809.19;5072550;28;20033;-79
2022/05/10 02:53:28;;;;;;;7.53;4.45;;;;;;;12.64;65.66;101806.59;5072122;28;20108;-79
2022/05/10 02:55:57;;;;;;;6.72;4.50;;;;;;;12.64;65.69;101803.97;5071965;28;20370;-79
2022/05/10 02:58:49;;;;;;;6.88;4.60;;;;;;;12.63;65.84;101792.72;5073000;28;20025;-79
2022/05/10 03:01:22;;;;;;;7.35;4.60;;;;;;;12.62;65.79;101787.50;5072054;28;20076;-79
2022/05/10 03:03:48;;;;;;;7.25;4.53;;;;;;;12.62;66.22;101796.19;5072471;28;20025;-78
2022/05/10 03:06:22;;;;;;;6.40;4.20;;;;;;;12.62;67.01;101784.88;5072544;28;20033;-78
2022/05/10 03:08:48;;;;;;;5.53;3.80;;;;;;;12.61;66.36;101783.19;5072575;28;20388;-79
2022/05/10 03:11:14;;;;;;;6.07;3.60;;;;;;;12.61;66.74;101791.00;5072714;28;20039;-79
2022/05/10 03:13:40;;;;;;;7.50;4.20;;;;;;;12.59;66.42;101788.41;5071603;28;20025;-79
2022/05/10 03:16:06;;;;;;;5.68;3.80;;;;;;;12.61;66.63;101780.59;5072261;28;20079;-79
2022/05/10 03:18:32;;;;;;;7.10;3.97;;;;;;;12.60;66.82;101782.31;5072440;28;20052;-79
2022/05/10 03:20:57;;;;;;;5.93;4.10;;;;;;;12.61;66.79;101781.44;5071279;28;20036;-79
2022/05/10 03:23:22;;;;;;;5.57;3.80;;;;;;;12.62;66.49;101780.56;5072598;28;20038;-80
2022/05/10 03:25:48;;;;;;;8.67;4.40;;;;;;;12.64;66.36;101773.59;5072331;28;20025;-79
2022/05/10 03:28:14;;;;;;;6.17;4.20;;;;;;;12.65;66.86;101770.13;5071849;28;20024;-78
2022/05/10 03:30:40;;;;;;;7.53;4.50;;;;;;;12.69;66.33;101770.06;5072164;28;20107;-79
2022/05/10 03:33:05;;;;;;;8.45;4.60;;;;;;;12.69;66.62;101773.56;5072445;28;20028;-79
2022/05/10 03:35:31;;;;;;;7.13;4.20;;;;;;;12.71;66.66;101765.72;5072101;28;20031;-79
2022/05/10 03:37:56;;;;;;;6.83;4.43;;;;;;;12.73;66.70;101766.56;5072158;28;20135;-79
2022/05/10 03:40:22;;;;;;;6.57;4.17;;;;;;;12.74;66.74;101769.16;5072258;28;20025;-79
2022/05/10 03:42:50;;;;;;;5.90;4.03;;;;;;;12.74;67.41;101769.16;5070982;28;20472;-79
2022/05/10 03:45:18;;;;;;;7.13;4.18;;;;;;;12.75;67.11;101767.44;5072298;28;20016;-79
2022/05/10 03:47:44;;;;;;;6.47;4.25;;;;;;;12.73;67.02;101759.63;5071896;28;20025;-79
2022/05/10 03:50:10;;;;;;;7.97;4.37;;;;;;;12.74;67.24;101753.53;5072593;28;20070;-79
2022/05/10 03:52:38;;;;;;;6.40;4.20;;;;;;;12.74;67.03;101756.13;5075834;28;20418;-79
2022/05/10 03:55:05;;;;;;;6.13;4.07;;;;;;;12.74;67.30;101765.69;5076202;28;20400;-79
2022/05/10 03:57:30;;;;;;;6.75;4.07;;;;;;;12.74;67.09;101755.28;5075304;28;20533;-79
2022/05/10 03:59:56;;;;;;;6.00;4.20;;;;;;;12.74;67.53;101756.13;5075765;28;20032;-79
2022/05/10 04:02:21;;;;;;;5.77;3.83;;;;;;;12.74;67.92;101750.06;5075797;28;20366;-79
2022/05/10 04:04:46;;;;;;;5.63;3.60;;;;;;;12.73;68.67;101750.94;5074978;28;20021;-79
2022/05/10 04:07:11;;;;;;;4.90;3.23;;;;;;;12.70;68.65;101749.25;5076090;28;20137;-79
2022/05/10 04:09:38;;;;;;;4.60;3.50;;;;;;;12.68;68.85;101743.19;5075277;28;20032;-79
2022/05/10 04:12:04;;;;;;;4.40;3.20;;;;;;;12.70;68.92;101748.38;5075530;28;20024;-79
2022/05/10 04:14:29;;;;;;;4.63;3.40;;;;;;;12.71;70.39;101750.09;5075872;28;20035;-79
2022/05/10 04:16:54;;;;;;;4.43;3.30;;;;;;;12.70;68.98;101748.38;5074373;28;20397;-79
2022/05/10 04:19:20;;;;;;;3.87;2.90;;;;;;;12.70;68.62;101751.84;5075773;28;20039;-79
2022/05/10 04:21:45;;;;;;;4.40;3.00;;;;;;;12.71;70.05;101747.50;5075255;28;20064;-79
2022/05/10 04:24:10;;;;;;;4.00;2.90;;;;;;;12.72;69.97;101747.47;5074921;28;20036;-79
2022/05/10 04:26:37;;;;;;;4.80;3.00;;;;;;;12.73;69.93;101743.13;5075681;28;20443;-79
2022/05/10 04:29:03;;;;;;;4.97;3.40;;;;;;;12.73;70.75;101746.59;5075406;28;20116;-79
2022/05/10 04:31:28;;;;;;;5.40;3.10;;;;;;;12.75;70.79;101744.00;5074844;28;20048;-79
2022/05/10 04:33:53;;;;;;;4.17;2.93;;;;;;;12.77;72.26;101743.09;5075451;28;20028;-79
2022/05/10 04:36:22;;;;;;;4.77;3.20;;;;;;;12.78;70.92;101742.22;5075266;28;20396;-79
2022/05/10 04:38:49;;;;;;;5.60;3.35;;;;;;;12.80;70.88;101739.56;5074477;28;20051;-79
2022/05/10 04:41:25;;;;;;;3.83;2.70;;;;;;;12.83;70.09;101739.56;5075461;28;20021;-79
2022/05/10 04:43:52;;;;;;;3.55;2.60;;;;;;;12.86;70.81;101734.31;5074967;28;20115;-79
2022/05/10 04:46:17;;;;;;;4.22;3.00;;;;;;;12.89;70.97;101731.66;5074784;28;20028;-79
2022/05/10 04:48:43;;;;;;;4.00;2.90;;;;;;;12.92;70.13;101725.59;5075138;28;20039;-79
2022/05/10 04:51:09;;;;;;;4.35;3.15;;;;;;;12.99;70.64;101737.66;5075356;28;20067;-79
2022/05/10 04:53:35;;;;;;;3.47;2.63;;;;;;;13.03;71.96;101723.72;5074506;28;20051;-79
2022/05/10 04:56:02;;;;;;;5.18;3.10;;;;;;;13.08;71.06;101723.66;5074846;28;20029;-79
2022/05/10 04:58:27;;;;;;;3.78;2.90;;;;;;;13.13;71.32;101730.53;5074943;28;20031;-80
2022/05/10 05:00:57;;;;;;;3.57;2.60;;;;;;;13.20;71.61;101722.63;5072372;28;20036;-79
2022/05/10 05:03:23;;;;;;;3.35;2.75;;;;;;;13.25;70.25;101724.31;5074907;28;20028;-79
2022/05/10 05:05:48;;;;;;;3.47;2.60;;;;;;;13.36;70.19;101725.91;5074173;28;20078;-78
2022/05/10 05:08:13;;;;;;;3.17;2.53;;;;;;;13.41;71.09;101727.63;5073434;28;20032;-79
2022/05/10 05:10:39;;;;;;;3.63;2.67;;;;;;;13.48;70.77;101730.16;5074823;28;20030;-79
2022/05/10 05:13:04;;;;;;;3.37;2.60;;;;;;;13.53;70.43;101724.00;5064525;28;20072;-78
2022/05/10 05:15:29;;;;;;;3.23;2.53;;;;;;;13.59;69.50;101726.50;5054530;28;20462;-79
2022/05/10 05:17:54;;;;;;;2.60;2.40;;;;;;;13.66;69.76;101729.91;5054117;28;20041;-79
2022/05/10 05:20:20;;;;;;;3.43;2.43;;;;;;;13.75;69.74;101734.13;5053944;28;20036;-78
2022/05/10 05:22:45;;;;;;;2.70;2.30;;;;;;;13.81;69.82;101733.19;5054171;28;20420;-79
2022/05/10 05:25:10;;;;;;;2.77;2.40;;;;;;;13.87;69.04;101733.06;5062231;28;20036;-79
2022/05/10 05:27:35;;;;;;;3.03;2.50;;;;;;;13.93;70.23;101740.81;5073231;28;20138;-79
2022/05/10 05:30:01;;;;;;;3.57;2.50;;;;;;;13.97;69.96;101734.66;5074312;28;20024;-78
2022/05/10 05:32:33;;;;;;;3.23;2.60;;;;;;;14.04;70.91;101735.44;5073839;28;20024;-80
2022/05/10 05:34:58;;;;;;;4.88;3.22;;;;;;;14.08;69.74;101731.00;5073074;28;20035;-79
2022/05/10 05:37:33;;;;;;;7.60;4.00;;;;;;;14.15;70.37;101730.91;5074191;28;20036;-80
2022/05/10 05:40:00;;;;;;;5.65;3.40;;;;;;;14.22;70.85;101736.88;5073590;28;20401;-78
2022/05/10 05:42:26;;;;;;;7.07;4.25;;;;;;;14.29;71.77;101733.31;5073104;28;20028;-79
2022/05/10 05:44:54;;;;;;;7.40;4.30;;;;;;;14.37;71.26;101735.75;5073393;28;20040;-79
2022/05/10 05:47:19;;;;;;;10.30;5.47;;;;;;;14.45;70.84;101735.63;5073994;28;20044;-80
2022/05/10 05:49:44;;;;;;;7.87;4.57;;;;;;;14.53;71.26;101733.75;5072840;28;20017;-79
2022/05/10 05:52:09;;;;;;;8.33;4.47;;;;;;;14.61;71.02;101731.00;5073773;28;20036;-79
2022/05/10 05:54:35;;;;;;;7.03;4.40;;;;;;;14.70;71.23;101725.63;5073769;28;20439;-79
2022/05/10 05:57:02;;;;;;;9.40;5.23;;;;;;;14.80;71.48;101727.22;5072536;28;20036;-79
2022/05/10 05:59:28;;;;;;;9.20;5.28;;;;;;;14.95;71.03;101719.94;5073059;28;20094;-79
2022/05/10 06:01:54;;;;;;;13.37;6.50;;;;;;;15.07;70.36;101717.09;5073035;28;20024;-81
2022/05/10 06:04:20;;;;;;;11.63;6.20;;;;;;;15.21;69.87;101711.56;5072758;28;20838;-80
2022/05/10 06:06:45;;;;;;;9.77;5.50;;;;;;;15.33;70.42;101701.75;5073048;28;20024;-80
2022/05/10 06:09:11;;;;;;;9.43;5.60;;;;;;;15.43;68.96;101703.28;5073301;28;20039;-81
2022/05/10 06:11:42;;;;;;;9.23;5.13;;;;;;;15.54;69.04;101703.88;5072693;28;20037;-80
2022/05/10 06:14:07;;;;;;;7.57;4.78;;;;;;;15.65;68.63;101714.13;5072176;28;20112;-81
2022/05/10 06:16:33;;;;;;;8.60;5.43;;;;;;;15.73;69.50;101709.56;5072673;28;20135;-80
2022/05/10 06:18:59;;;;;;;14.70;7.70;;;;;;;15.88;67.96;101710.16;5073301;28;20048;-81
2022/05/10 06:21:24;;;;;;;11.63;7.13;;;;;;;16.00;67.94;101707.25;5073132;28;20435;-80
2022/05/10 06:23:50;;;;;;;11.87;7.10;;;;;;;16.18;66.64;101708.56;5072083;28;20052;-81
2022/05/10 06:26:15;;;;;;;12.20;7.47;;;;;;;16.35;66.56;101713.38;5073065;28;20034;-80
2022/05/10 06:28:41;;;;;;;11.47;6.80;;;;;;;16.47;66.99;101712.16;5072626;28;20046;-81
2022/05/10 06:31:12;;;;;;;12.20;6.70;;;;;;;16.59;66.13;101704.88;5072067;28;20426;-80
2022/05/10 06:33:37;;;;;;;9.48;5.75;;;;;;;16.67;66.05;101702.91;5072668;28;20028;-80
2022/05/10 06:36:03;;;;;;;10.80;6.57;;;;;;;16.80;65.18;101698.22;5072775;28;20081;-81
2022/05/10 06:38:36;;;;;;;9.87;5.97;;;;;;;16.89;65.39;101707.59;5071941;28;20023;-81
2022/05/10 06:41:15;;;;;;;8.48;5.25;;;;;;;16.98;65.11;101704.72;5072550;28;20396;-80
2022/05/10 06:43:40;;;;;;;9.38;5.70;;;;;;;17.06;65.49;101692.25;5072361;28;20145;-80
2022/05/10 06:46:14;;;;;;;8.73;5.80;;;;;;;17.17;64.62;101696.31;5072083;28;20024;-81
2022/05/10 06:48:40;;;;;;;8.75;5.80;;;;;;;17.25;63.98;101696.94;5072804;28;20020;-80
2022/05/10 06:51:07;;;;;;;8.77;5.93;;;;;;;17.37;63.93;101698.38;5073063;28;20450;-80
2022/05/10 06:53:34;;;;;;;8.20;4.80;;;;;;;17.48;63.91;101696.28;5072394;28;20032;-80
2022/05/10 06:56:00;;;;;;;9.05;5.05;;;;;;;17.57;64.17;101687.22;5072127;28;20507;-80
2022/05/10 06:58:25;;;;;;;9.33;6.07;;;;;;;17.69;62.87;101686.84;5072620;28;20055;-79
2022/05/10 07:00:50;;;;;;;10.37;6.00;;;;;;;17.82;62.86;101695.22;5072068;28;20388;-80
2022/05/10 07:03:22;;;;;;;9.37;6.43;;;;;;;17.91;62.90;101688.78;5072512;28;20028;-80
2022/05/10 07:05:48;;;;;;;9.48;5.60;;;;;;;18.00;62.59;101683.28;5071130;28;20354;-81
2022/05/10 07:08:13;;;;;;;9.00;6.20;;;;;;;18.11;62.19;101689.94;5072434;28;20025;-80
2022/05/10 07:10:39;;;;;;;8.17;5.87;;;;;;;18.18;61.74;101680.94;5072498;28;20021;-80
2022/05/10 07:13:04;;;;;;;7.43;5.30;;;;;;;18.36;62.49;101682.91;5071992;28;20028;-80
2022/05/10 07:15:30;;;;;;;11.13;6.37;;;;;;;18.59;60.34;101676.00;5072777;28;20027;-80
2022/05/10 07:17:55;;;;;;;7.87;5.30;;;;;;;18.79;61.06;101679.69;5072389;28;20508;-80
2022/05/10 07:20:23;;;;;;;9.67;5.77;;;;;;;18.97;60.40;101670.31;5071463;28;20632;-80
2022/05/10 07:22:49;;;;;;;8.45;4.93;;;;;;;19.12;59.83;101677.59;5071799;28;20089;-80
2022/05/10 07:25:21;;;;;;;7.37;5.00;;;;;;;19.24;59.99;101671.03;5075487;28;20464;-80
2022/05/10 07:27:46;;;;;;;10.10;6.13;;;;;;;19.34;58.98;101668.88;5075545;28;20043;-80
2022/05/10 07:30:14;;;;;;;9.03;5.70;;;;;;;19.43;58.54;101665.88;5076694;28;20020;-81
2022/05/10 07:32:39;;;;;;;10.43;5.82;;;;;;;19.60;58.26;101665.19;5076465;28;20017;-80
2022/05/10 07:35:06;;;;;;;9.20;5.93;;;;;;;19.79;58.06;101664.47;5076156;28;20085;-80
2022/05/10 07:37:33;;;;;;;10.85;5.97;;;;;;;20.06;56.33;101667.75;5076807;28;20108;-80
2022/05/10 07:39:59;;;;;;;8.10;5.40;;;;;;;20.17;57.73;101669.06;5075937;28;20037;-80
2022/05/10 07:42:25;;;;;;;7.27;4.67;;;;;;;20.27;56.58;101664.25;5075726;28;20028;-80
2022/05/10 07:44:51;;;;;;;8.20;5.47;;;;;;;20.28;56.50;101663.31;5076113;28;20035;-80
2022/05/10 07:47:17;;;;;;;7.72;4.97;;;;;;;20.29;56.83;101667.69;5076116;28;20029;-80
2022/05/10 07:49:42;;;;;;;8.52;5.15;;;;;;;20.32;56.05;101663.13;5075297;28;20070;-80
2022/05/10 07:52:07;;;;;;;6.03;4.57;;;;;;;20.40;56.82;101662.78;5075920;28;20116;-80
2022/05/10 07:54:35;;;;;;;8.07;4.93;;;;;;;20.50;55.52;101655.34;5076168;28;20039;-80
2022/05/10 07:57:01;;;;;;;8.68;4.72;;;;;;;20.55;54.84;101661.25;5075391;28;20025;-81
2022/05/10 07:59:28;;;;;;;8.10;4.63;;;;;;;20.53;54.62;101655.22;5076315;28;20043;-81
2022/05/10 08:01:53;;;;;;;6.03;4.80;;;;;;;20.56;54.39;101660.34;5075117;28;20400;-80
2022/05/10 08:04:18;;;;;;;5.70;4.10;;;;;;;20.61;55.88;101652.22;5076271;28;20035;-80
2022/05/10 08:06:46;;;;;;;4.70;3.90;;;;;;;20.77;55.45;101649.81;5075731;28;20032;-80
2022/05/10 08:09:11;;;;;;;6.43;4.40;;;;;;;20.90;55.06;101650.09;5075325;28;20012;-80
2022/05/10 08:11:36;;;;;;;9.57;5.20;;;;;;;20.94;51.85;101649.03;5075805;28;20096;-81
2022/05/10 08:14:04;;;;;;;7.70;4.27;;;;;;;20.93;54.20;101648.16;5075821;28;20372;-80
2022/05/10 08:16:32;;;;;;;5.60;4.25;;;;;;;20.97;53.86;101652.38;5074782;28;20044;-80
2022/05/10 08:18:57;;;;;;;7.15;4.60;;;;;;;21.00;53.69;101661.91;5075061;28;20807;-80
2022/05/10 08:21:22;;;;;;;5.20;4.00;;;;;;;21.02;53.03;101654.81;5075562;28;20041;-80
2022/05/10 08:23:52;;;;;;;7.43;4.97;;;;;;;21.02;52.03;101649.53;5074485;28;20016;-81
2022/05/10 08:26:17;;;;;;;6.47;4.40;;;;;;;21.00;53.50;101650.53;5075743;28;20029;-81
2022/05/10 08:28:43;;;;;;;7.60;4.60;;;;;;;20.98;53.93;101651.44;5075149;28;20027;-82
2022/05/10 08:31:08;;;;;;;6.60;4.53;;;;;;;20.97;52.03;101649.75;5074698;28;20027;-81
2022/05/10 08:33:36;;;;;;;5.22;3.97;;;;;;;20.95;53.20;101648.06;5075747;28;20040;-75
2022/05/10 08:36:02;;;;;;;6.20;4.10;;;;;;;20.94;53.39;101651.66;5074628;28;20024;-79
2022/05/10 08:38:30;;;;;;;7.25;4.15;;;;;;;20.90;53.19;101639.53;5074490;28;20112;-80
2022/05/10 08:41:02;;;;;;;7.00;4.43;;;;;;;20.91;52.67;101644.72;5074141;28;20111;-80
2022/05/10 08:43:33;;;;;;;7.70;4.68;;;;;;;20.87;52.67;101637.03;5075266;28;20020;-80
2022/05/10 08:45:59;;;;;;;6.07;4.03;;;;;;;20.89;53.00;101630.75;5074129;28;20056;-80
2022/05/10 08:48:27;;;;;;;5.57;4.03;;;;;;;20.89;52.37;101629.91;5075525;28;20469;-80
2022/05/10 08:50:53;;;;;;;7.20;4.85;;;;;;;20.83;51.19;101631.03;5074969;28;20069;-79
2022/05/10 08:53:22;;;;;;;6.03;4.00;;;;;;;20.89;52.32;101635.19;5074658;28;20115;-81
2022/05/10 08:55:54;;;;;;;6.13;4.20;;;;;;;20.93;52.12;101628.84;5074935;28;20024;-80
2022/05/10 08:58:44;;;;;;;5.75;3.90;;;;;;;21.03;52.32;101622.22;5074405;28;20847;-80
2022/05/10 09:01:16;;;;;;;5.72;3.85;;;;;;;21.12;52.18;101619.13;5075062;28;20036;-80
2022/05/10 09:04:09;;;;;;;6.07;4.20;;;;;;;21.28;50.47;101621.00;5074669;28;20020;-81
2022/05/10 09:06:57;;;;;;;7.25;4.00;;;;;;;21.49;51.42;101618.28;5074025;28;20032;-80
2022/05/10 09:09:38;;;;;;;7.35;4.10;;;;;;;21.70;51.72;101621.66;5074676;28;20025;-83
2022/05/10 09:12:23;;;;;;;4.82;3.63;;;;;;;21.94;51.33;101629.28;5074480;28;20036;-80
2022/05/10 09:14:55;;;;;;;6.82;3.65;;;;;;;22.15;50.55;101616.75;5074510;28;20048;-80
2022/05/10 09:17:22;;;;;;;4.70;3.45;;;;;;;22.32;50.21;101611.44;5074200;28;20052;-79
2022/05/10 09:19:48;;;;;;;6.13;3.67;;;;;;;;;;5073654;28;20035;-79
2022/05/10 09:22:32;;;;;;;5.53;4.10;;;;;;;22.66;48.04;101612.31;5074752;28;20435;-79
2022/05/10 09:24:57;;;;;;;5.78;4.15;;;;;;;22.77;46.53;101603.78;5074491;28;20029;-79
2022/05/10 09:27:32;;;;;;;6.53;4.47;;;;;;;22.83;46.97;101606.09;5073773;28;20119;-80
2022/05/10 09:29:58;;;;;;;6.90;4.38;;;;;;;22.84;47.15;101599.00;5074408;28;20035;-80
2022/05/10 09:35:18;;;;;;;6.13;4.10;;;;;;;22.95;47.63;101590.47;5073539;28;20095;-79
2022/05/10 09:37:48;;;;;;;4.15;3.40;;;;;;;23.08;48.19;101596.78;5073956;28;20024;-80
2022/05/10 09:40:17;;;;;;;3.90;3.30;;;;;;;23.23;48.89;101604.84;5073223;28;20055;-80
2022/05/10 09:42:47;;;;;;;5.13;3.38;;;;;;;23.31;47.28;101599.06;5074029;28;20051;-80
2022/05/10 09:45:22;;;;;;;4.85;3.70;;;;;;;23.35;47.91;101603.25;5074246;28;20032;-80
2022/05/10 09:47:58;;;;;;;4.03;3.42;;;;;;;23.36;47.84;101591.72;5071986;28;20111;-80
2022/05/10 09:50:34;;;;;;;4.15;3.40;;;;;;;23.38;47.50;101600.44;5074021;28;20032;-80
2022/05/10 09:53:08;;;;;;;;;;;;;;;23.38;45.42;101585.41;5074259;28;20040;-80
2022/05/10 09:55:34;;;;;;;6.70;4.38;;;;;;;23.39;46.73;101584.47;5073078;28;19939;-80
2022/05/10 09:58:14;;;;;;;6.20;3.92;;;;;;;23.49;47.63;101584.78;5073562;28;20028;-80
2022/05/10 10:00:42;;;;;;;4.60;3.70;;;;;;;23.65;47.52;101590.03;5072934;28;20031;-80
2022/05/10 10:03:08;;;;;;;5.60;3.90;;;;;;;23.76;46.44;101581.44;5073062;28;20028;-80
2022/05/10 10:05:35;;;;;;;6.93;4.57;;;;;;;23.87;45.65;101564.91;5073848;28;20111;-80
2022/05/10 10:08:01;;;;;;;5.78;4.00;;;;;;;24.07;45.44;101571.69;5073499;28;20029;-80
2022/05/10 10:10:31;;;;;;;7.47;4.35;;;;;;;24.10;45.78;101576.78;5072817;28;20104;-80
2022/05/10 10:12:57;;;;;;;6.88;4.07;;;;;;;24.21;44.83;101569.03;5073329;28;20139;-80
2022/05/10 10:15:35;;;;;;;7.75;4.10;;;;;;;24.42;45.74;101557.19;5072959;28;20491;-80
2022/05/10 10:18:08;;;;;;;7.30;4.40;;;;;;;24.63;43.66;101563.78;5072655;28;20048;-80
2022/05/10 10:20:56;;;;;;;6.20;4.00;;;;;;;24.87;43.92;101560.53;5073476;28;20043;-80
2022/05/10 10:23:28;;;;;;;7.60;4.40;;;;;;;25.03;43.35;101556.88;5073230;28;20092;-80
2022/05/10 10:26:12;;;;;;;5.28;3.97;;;;;;;25.20;42.33;101558.44;5072988;28;20495;-80
2022/05/10 10:28:49;;;;;;;6.60;4.10;;;;;;;25.29;41.35;101552.50;5072802;28;20107;-81
2022/05/10 10:31:33;;;;;;;6.50;3.80;;;;;;;25.40;40.88;101549.13;5072733;28;20036;-79
2022/05/10 10:34:12;;;;;;;6.57;3.90;;;;;;;25.53;40.46;101551.84;5072861;28;20039;-77
2022/05/10 10:36:48;;;;;;;5.32;3.80;;;;;;;25.68;40.97;101555.25;5072102;28;20108;-78
2022/05/10 10:39:36;;;;;;;5.82;3.70;;;;;;;25.80;38.28;101557.09;5073273;28;20016;-78
2022/05/10 10:42:10;;;;;;;8.00;4.10;;;;;;;25.85;39.97;101552.28;5072973;28;20060;-78
2022/05/10 10:44:43;;;;;;;5.35;3.50;;;;;;;25.94;40.37;101561.44;5072264;28;20029;-78
2022/05/10 10:47:20;;;;;;;6.97;3.50;;;;;;;26.17;38.06;101551.91;5073194;28;20082;-78
2022/05/10 10:50:07;;;;;;;4.35;3.30;;;;;;;26.27;39.86;101549.41;5072685;28;20033;-78
2022/05/10 10:52:33;;;;;;;8.82;3.70;;;;;;;26.17;38.84;101535.94;5072252;28;20484;-78
2022/05/10 10:54:58;;;;;;;6.37;3.93;;;;;;;26.03;38.65;101542.16;5071836;28;20033;-78
2022/05/10 10:57:46;;;;;;;6.68;3.97;;;;;;;25.98;39.53;101544.31;5073006;28;20033;-78
2022/05/10 11:00:20;;;;;;;3.63;3.17;;;;;;;26.02;39.90;101542.28;5072630;28;20020;-78
2022/05/10 11:03:08;;;;;;;4.53;3.30;;;;;;;25.98;40.65;101540.78;5072750;28;20020;-80
2022/05/10 11:05:58;;;;;;;7.63;3.60;;;;;;;25.90;39.93;101541.31;5072344;28;20028;-80
2022/05/10 11:08:47;;;;;;;5.57;3.80;;;;;;;25.71;39.73;101533.78;5072539;28;20020;-80
2022/05/10 11:11:27;;;;;;;4.95;3.45;;;;;;;25.70;40.50;101527.59;5072781;28;20094;-80
2022/05/10 11:14:06;;;;;;;5.13;3.58;;;;;;;25.75;40.29;101528.16;5071558;28;20384;-80
2022/05/10 11:16:32;;;;;;;6.72;4.13;;;;;;;25.70;39.81;101526.78;5059915;22;20489;-80
2022/05/10 11:19:15;;;;;;;4.00;3.33;;;;;;;25.59;39.91;101524.84;5051884;28;20091;-80
2022/05/10 11:21:58;;;;;;;4.65;3.45;;;;;;;25.49;41.31;101516.66;5052128;28;20029;-80
2022/05/10 11:24:51;;;;;;;3.72;2.95;;;;;;;25.50;41.73;101515.69;5052799;28;20024;-80
2022/05/10 11:27:27;;;;;;;4.18;3.05;;;;;;;25.50;39.51;101506.88;5051927;28;20060;-80
2022/05/10 11:30:08;;;;;;;;;;;;;;;25.51;39.99;101514.72;5052615;28;20032;-79
2022/05/10 11:33:16;;;;;;;4.53;3.60;;;;;;;25.51;41.69;101505.91;5052484;28;19924;-80
2022/05/10 11:36:11;;;;;;;5.50;3.72;;;;;;;25.70;41.59;101506.34;5051918;28;20033;-80
2022/05/10 11:39:31;;;;;;;6.30;4.05;;;;;;;25.81;39.65;101510.06;5052175;28;20079;-79
2022/05/10 11:42:32;;;;;;;7.10;4.05;;;;;;;25.90;40.88;101504.09;4970762;28;20043;-79
2022/05/10 11:45:20;;;;;;;5.68;3.75;;;;;;;26.03;40.48;101486.31;5052294;28;20179;-79
2022/05/10 11:48:05;;;;;;;3.65;3.30;;;;;;;26.03;40.64;101477.50;5050980;28;20112;-80
2022/05/10 11:53:55;;;;;;;7.10;4.03;;;;;;;25.75;38.52;101471.47;5052533;28;20049;-80